Time;durP1;ratioP1;P1;durP2;ratioP2;P2;SDS_P1;SDS_P2;PMS_P1;PMS_P2;Temp;Humidity;BMP_temperature;BMP_pressure;BME280_temperature;BME280_humidity;BME280_pressure;Samples;Min_cycle;Max_cycle;Signal;HPM_P1;HPM_P2
2021/08/16 00:01:41;;;;;;;0.80;0.73;;;;;;;19.30;100.00;-21205.03;5055224;28;20834;-73
2021/08/16 00:04:09;;;;;;;1.00;0.90;;;;;;;19.23;100.00;-21202.97;5035154;28;20421;-71
2021/08/16 00:06:38;;;;;;;1.77;0.97;;;;;;;19.12;100.00;-21200.09;5040302;28;20454;-72
2021/08/16 00:09:07;;;;;;;0.77;0.70;;;;;;;19.09;100.00;-21199.28;5055167;28;20509;-72
2021/08/16 00:11:36;;;;;;;0.70;0.60;;;;;;;19.16;100.00;-21201.19;5055040;28;20436;-72
2021/08/16 00:14:06;;;;;;;0.80;0.73;;;;;;;19.06;100.00;-21198.59;5055223;28;20440;-72
2021/08/16 00:16:36;;;;;;;1.67;1.07;;;;;;;19.00;100.00;-21196.81;5035444;28;20525;-72
2021/08/16 00:19:04;;;;;;;0.80;0.70;;;;;;;19.10;100.00;-21199.56;5053293;28;20465;-71
2021/08/16 00:21:32;;;;;;;0.70;0.60;;;;;;;19.05;100.00;-21198.19;5045132;28;20455;-72
2021/08/16 00:23:59;;;;;;;0.70;0.70;;;;;;;19.03;100.00;-21197.63;5035108;28;20458;-72
2021/08/16 00:26:28;;;;;;;0.90;0.80;;;;;;;19.00;100.00;-21196.81;5034744;28;20531;-71
2021/08/16 00:28:59;;;;;;;0.80;0.70;;;;;;;19.03;100.00;-21197.63;5018844;28;20446;-72
2021/08/16 00:31:28;;;;;;;0.77;0.67;;;;;;;18.93;100.00;-21195.03;5034670;28;20461;-72
2021/08/16 00:33:56;;;;;;;0.70;0.70;;;;;;;18.89;100.00;-21193.81;5042537;28;20443;-72
2021/08/16 00:36:23;;;;;;;0.77;0.70;;;;;;;18.79;100.00;-21191.22;5037000;28;21006;-71
2021/08/16 00:38:50;;;;;;;0.80;0.80;;;;;;;18.81;100.00;-21191.75;5054877;28;20445;-71
2021/08/16 00:41:19;;;;;;;0.80;0.80;;;;;;;18.66;100.00;-21187.78;5054980;28;20428;-73
2021/08/16 00:43:46;;;;;;;0.80;0.80;;;;;;;18.68;100.00;-21188.19;5056035;28;20419;-71
2021/08/16 00:46:13;;;;;;;0.83;0.83;;;;;;;18.54;100.00;-21184.50;5055571;28;20433;-73
2021/08/16 00:48:43;;;;;;;0.80;0.70;;;;;;;18.34;100.00;-21179.16;5054135;28;20837;-73
2021/08/16 00:51:10;;;;;;;0.77;0.60;;;;;;;18.37;100.00;-21179.97;5035876;28;20435;-73
2021/08/16 00:53:38;;;;;;;0.80;0.80;;;;;;;18.20;100.00;-21175.47;5034729;28;21031;-73
2021/08/16 00:56:07;;;;;;;0.70;0.60;;;;;;;18.05;100.00;-21171.47;5017547;28;20457;-73
2021/08/16 00:58:35;;;;;;;0.80;0.80;;;;;;;17.98;100.00;-21169.44;5035809;28;20502;-72
2021/08/16 01:01:02;;;;;;;0.90;0.90;;;;;;;18.05;100.00;-21171.34;5017589;28;20433;-71
2021/08/16 01:03:30;;;;;;;0.80;0.80;;;;;;;17.83;100.00;-21165.44;5039564;28;20484;-72
2021/08/16 01:05:58;;;;;;;1.20;0.97;;;;;;;17.74;100.00;-21163.13;5055421;28;20445;-73
2021/08/16 01:08:26;;;;;;;0.80;0.70;;;;;;;17.84;100.00;-21165.88;5053283;28;20456;-72
2021/08/16 01:10:55;;;;;;;0.80;0.80;;;;;;;17.76;100.00;-21163.66;5054258;28;20463;-71
2021/08/16 01:13:24;;;;;;;0.70;0.60;;;;;;;17.63;100.00;-21160.09;5053858;28;20504;-72
2021/08/16 01:15:59;;;;;;;0.80;0.70;;;;;;;17.55;100.00;-21157.91;5055093;28;20546;-73
2021/08/16 01:18:28;;;;;;;0.70;0.60;;;;;;;17.53;100.00;-21157.38;5042631;28;20468;-71
2021/08/16 01:20:55;;;;;;;0.80;0.67;;;;;;;17.44;100.00;-21154.91;5034127;28;20465;-74
2021/08/16 01:23:25;;;;;;;0.80;0.70;;;;;;;17.43;100.00;-21154.63;5036556;28;20490;-73
2021/08/16 01:25:53;;;;;;;0.70;0.60;;;;;;;17.29;100.00;-21151.06;5066144;28;20843;-73
2021/08/16 01:28:25;;;;;;;0.70;0.60;;;;;;;17.27;100.00;-21150.50;5054799;28;20877;-72
2021/08/16 01:30:54;;;;;;;0.70;0.60;;;;;;;17.18;100.00;-21148.03;5055306;28;20417;-73
2021/08/16 01:33:23;;;;;;;0.80;0.70;;;;;;;17.15;100.00;-21147.22;5053327;28;20958;-73
2021/08/16 01:35:51;;;;;;;0.70;0.67;;;;;;;17.16;100.00;-21147.50;5054882;28;20862;-75
2021/08/16 01:38:19;;;;;;;0.80;0.70;;;;;;;17.32;100.00;-21151.75;5053532;28;20467;-73
2021/08/16 01:40:46;;;;;;;0.80;0.70;;;;;;;17.23;100.00;-21149.41;5037110;28;20510;-71
2021/08/16 01:43:13;;;;;;;0.73;0.70;;;;;;;17.06;100.00;-21144.88;5054675;28;20408;-72
2021/08/16 01:45:41;;;;;;;0.70;0.70;;;;;;;17.03;100.00;-21143.91;5052791;28;20431;-74
2021/08/16 01:48:09;;;;;;;0.77;0.70;;;;;;;16.98;100.00;-21142.69;5052505;28;20529;-73
2021/08/16 01:50:36;;;;;;;0.80;0.70;;;;;;;16.73;100.00;-21135.97;5054806;28;20876;-75
2021/08/16 01:53:03;;;;;;;0.80;0.70;;;;;;;16.78;100.00;-21137.19;5054868;28;20480;-73
2021/08/16 01:55:30;;;;;;;0.80;0.80;;;;;;;16.78;100.00;-21137.34;5054343;28;20453;-74
2021/08/16 01:57:57;;;;;;;0.70;0.60;;;;;;;16.90;100.00;-21140.50;5051608;28;20502;-72
2021/08/16 02:00:48;;;;;;;0.70;0.70;;;;;;;16.77;100.00;-21136.94;5052950;28;20422;-72
2021/08/16 02:03:17;;;;;;;0.80;0.60;;;;;;;16.75;100.00;-21136.50;5036894;28;20527;-71
2021/08/16 02:05:44;;;;;;;0.80;0.70;;;;;;;16.67;100.00;-21134.31;5053056;28;20476;-72
2021/08/16 02:08:11;;;;;;;0.80;0.70;;;;;;;16.65;100.00;-21133.75;5053283;28;20532;-73
2021/08/16 02:10:39;;;;;;;0.80;0.80;;;;;;;16.62;100.00;-21132.94;5053217;28;20428;-73
2021/08/16 02:13:10;;;;;;;0.70;0.60;;;;;;;16.67;100.00;-21134.44;5052035;28;20434;-73
2021/08/16 02:15:38;;;;;;;0.83;0.83;;;;;;;16.67;100.00;-21134.31;5026742;28;20832;-72
2021/08/16 02:18:09;;;;;;;1.20;1.10;;;;;;;16.90;100.00;-21140.50;5044913;28;20429;-73
2021/08/16 02:20:36;;;;;;;0.80;0.70;;;;;;;16.78;100.00;-21137.34;5052671;28;20459;-74
2021/08/16 02:23:03;;;;;;;0.80;0.80;;;;;;;16.61;100.00;-21132.66;5052550;28;20987;-75
2021/08/16 02:25:31;;;;;;;0.80;0.80;;;;;;;16.59;100.00;-21132.13;5053920;28;20474;-74
2021/08/16 02:27:58;;;;;;;0.80;0.80;;;;;;;16.60;100.00;-21132.53;5051276;28;20440;-74
2021/08/16 02:30:26;;;;;;;0.70;0.70;;;;;;;16.84;100.00;-21138.97;5043149;28;20439;-75
2021/08/16 02:32:53;;;;;;;0.80;0.80;;;;;;;16.89;100.00;-21140.34;5032746;28;20412;-74
2021/08/16 02:35:21;;;;;;;0.80;0.70;;;;;;;17.05;100.00;-21144.47;5033912;28;20981;-73
2021/08/16 02:37:49;;;;;;;0.80;0.70;;;;;;;17.17;100.00;-21147.63;5034003;28;20999;-73
2021/08/16 02:40:17;;;;;;;0.70;0.60;;;;;;;17.14;100.00;-21146.94;5032980;28;20412;-72
2021/08/16 02:42:44;;;;;;;0.70;0.70;;;;;;;17.14;100.00;-21146.94;5034351;28;20444;-72
2021/08/16 02:45:11;;;;;;;0.77;0.67;;;;;;;17.19;100.00;-21148.31;5064065;28;20431;-74
2021/08/16 02:47:39;;;;;;;0.70;0.70;;;;;;;17.21;100.00;-21148.84;5022747;28;21054;-72
2021/08/16 02:50:07;;;;;;;0.80;0.70;;;;;;;17.24;100.00;-21149.69;5053531;28;20860;-71
2021/08/16 02:52:37;;;;;;;0.80;0.80;;;;;;;17.39;100.00;-21153.66;5053399;28;20410;-71
2021/08/16 02:55:06;;;;;;;0.70;0.70;;;;;;;17.34;100.00;-21152.44;5052335;28;20445;-72
2021/08/16 02:57:33;;;;;;;0.90;0.90;;;;;;;17.27;100.00;-21150.50;5050310;28;20984;-73
2021/08/16 03:00:01;;;;;;;0.70;0.60;;;;;;;17.25;100.00;-21149.97;5038853;28;20465;-73
2021/08/16 03:02:28;;;;;;;0.70;0.60;;;;;;;17.29;100.00;-21151.06;5040518;28;20526;-72
2021/08/16 03:04:55;;;;;;;0.70;0.70;;;;;;;17.50;100.00;-21156.53;5034294;28;20521;-73
2021/08/16 03:07:22;;;;;;;0.80;0.70;;;;;;;17.49;100.00;-21156.25;5032118;28;20434;-73
2021/08/16 03:09:50;;;;;;;0.80;0.70;;;;;;;17.50;100.00;-21156.69;5033430;28;20432;-72
2021/08/16 03:12:18;;;;;;;0.70;0.70;;;;;;;17.53;100.00;-21157.38;5033152;28;20431;-72
2021/08/16 03:14:46;;;;;;;0.80;0.70;;;;;;;17.56;100.00;-21158.19;5044046;28;20448;-73
2021/08/16 03:17:13;;;;;;;0.70;0.60;;;;;;;17.54;100.00;-21157.63;5053075;28;20469;-73
2021/08/16 03:19:40;;;;;;;0.70;0.60;;;;;;;17.42;100.00;-21154.34;5046241;28;20494;-74
2021/08/16 03:22:07;;;;;;;0.70;0.67;;;;;;;17.36;100.00;-21152.97;5037717;28;20838;-71
2021/08/16 03:24:33;;;;;;;0.80;0.73;;;;;;;17.39;100.00;-21153.78;5033444;28;20452;-71
2021/08/16 03:27:02;;;;;;;0.80;0.73;;;;;;;17.36;100.00;-21152.97;5033029;28;20469;-73
2021/08/16 03:29:29;;;;;;;0.80;0.70;;;;;;;17.36;100.00;-21152.84;5051624;28;20443;-74
2021/08/16 03:32:00;;;;;;;0.80;0.70;;;;;;;17.36;100.00;-21152.97;5050903;28;20419;-72
2021/08/16 03:34:27;;;;;;;0.80;0.80;;;;;;;17.37;100.00;-21153.25;5052527;28;20954;-72
2021/08/16 03:36:55;;;;;;;0.80;0.80;;;;;;;17.35;100.00;-21152.69;5035287;28;20501;-72
2021/08/16 03:39:22;;;;;;;0.80;0.80;;;;;;;17.28;100.00;-21150.78;5051777;28;20461;-72
2021/08/16 03:41:49;;;;;;;0.80;0.70;;;;;;;17.11;100.00;-21146.13;5050246;28;20450;-72
2021/08/16 03:44:17;;;;;;;0.73;0.67;;;;;;;17.07;100.00;-21145.03;5059663;28;20436;-73
2021/08/16 03:46:44;;;;;;;0.80;0.70;;;;;;;16.98;100.00;-21142.56;5061024;28;20465;-72
2021/08/16 03:49:11;;;;;;;0.80;0.70;;;;;;;16.98;100.00;-21142.56;5050756;28;20864;-72
2021/08/16 03:51:39;;;;;;;0.93;0.90;;;;;;;16.86;100.00;-21139.53;5053038;28;20456;-72
2021/08/16 03:54:06;;;;;;;0.70;0.67;;;;;;;16.92;100.00;-21140.91;5052771;28;20895;-71
2021/08/16 03:56:33;;;;;;;0.97;0.90;;;;;;;16.86;100.00;-21139.53;5050836;28;20461;-71
2021/08/16 03:59:00;;;;;;;0.70;0.60;;;;;;;16.84;100.00;-21138.97;5050870;28;20431;-72
2021/08/16 04:01:29;;;;;;;0.70;0.70;;;;;;;16.84;100.00;-21138.97;5042569;28;20437;-71
2021/08/16 04:04:01;;;;;;;0.80;0.70;;;;;;;16.85;100.00;-21139.13;5033269;28;21074;-72
2021/08/16 04:06:29;;;;;;;0.70;0.70;;;;;;;16.81;100.00;-21138.16;5052662;28;20439;-71
2021/08/16 04:08:57;;;;;;;0.90;0.80;;;;;;;16.94;100.00;-21141.44;5051481;28;20469;-70
2021/08/16 04:11:24;;;;;;;0.80;0.70;;;;;;;16.95;100.00;-21141.88;5053274;28;20434;-70
2021/08/16 04:13:52;;;;;;;0.70;0.70;;;;;;;16.92;100.00;-21140.91;5045524;28;20799;-72
2021/08/16 04:16:19;;;;;;;0.80;0.70;;;;;;;16.83;100.00;-21138.72;5044167;28;20960;-71
2021/08/16 04:18:47;;;;;;;1.23;1.13;;;;;;;16.85;100.00;-21139.25;5053751;28;20435;-72
2021/08/16 04:21:14;;;;;;;0.70;0.60;;;;;;;16.84;100.00;-21138.97;5053292;28;20424;-71
2021/08/16 04:23:41;;;;;;;0.70;0.70;;;;;;;16.83;100.00;-21138.56;5044371;28;20787;-70
2021/08/16 04:26:08;;;;;;;0.70;0.70;;;;;;;16.84;100.00;-21138.84;5045269;28;20434;-70
2021/08/16 04:28:39;;;;;;;0.70;0.60;;;;;;;16.87;100.00;-21139.66;5052140;28;20406;-71
2021/08/16 04:31:07;;;;;;;0.73;0.67;;;;;;;16.87;100.00;-21139.81;5031418;28;20442;-71
2021/08/16 04:33:34;;;;;;;0.70;0.70;;;;;;;16.92;100.00;-21140.91;5032654;28;20424;-72
2021/08/16 04:36:02;;;;;;;0.80;0.80;;;;;;;17.00;100.00;-21143.09;5014907;28;20836;-71
2021/08/16 04:38:30;;;;;;;0.80;0.70;;;;;;;17.07;100.00;-21145.03;5042438;28;20464;-72
2021/08/16 04:40:57;;;;;;;0.80;0.70;;;;;;;17.14;100.00;-21147.06;5052224;28;20431;-73
2021/08/16 04:43:24;;;;;;;0.80;0.70;;;;;;;17.22;100.00;-21149.13;5051442;28;20425;-71
2021/08/16 04:45:51;;;;;;;0.70;0.60;;;;;;;17.28;100.00;-21150.78;5054562;28;20424;-73
2021/08/16 04:48:19;;;;;;;0.73;0.70;;;;;;;17.32;100.00;-21151.88;5038086;28;20947;-71
2021/08/16 04:50:47;;;;;;;0.80;0.70;;;;;;;17.47;100.00;-21155.72;5054748;28;20417;-73
2021/08/16 04:53:17;;;;;;;0.70;0.70;;;;;;;17.36;100.00;-21152.84;5053821;28;20515;-71
2021/08/16 04:55:44;;;;;;;0.73;0.70;;;;;;;17.34;100.00;-21152.44;5054073;28;20607;-73
2021/08/16 04:58:12;;;;;;;0.80;0.70;;;;;;;17.30;100.00;-21151.31;5053247;28;20966;-72
2021/08/16 05:00:39;;;;;;;0.70;0.70;;;;;;;17.41;100.00;-21154.06;5054094;28;20412;-73
2021/08/16 05:03:07;;;;;;;0.80;0.70;;;;;;;17.51;100.00;-21156.81;5052416;28;20463;-71
2021/08/16 05:05:35;;;;;;;0.70;0.70;;;;;;;17.47;100.00;-21155.72;5053900;28;20526;-71
2021/08/16 05:08:03;;;;;;;0.80;0.70;;;;;;;17.53;100.00;-21157.38;5053916;28;20441;-72
2021/08/16 05:10:31;;;;;;;0.80;0.70;;;;;;;17.62;100.00;-21159.81;5054412;28;20722;-71
2021/08/16 05:12:59;;;;;;;0.90;0.90;;;;;;;17.50;100.00;-21156.53;5041087;28;20445;-73
2021/08/16 05:15:26;;;;;;;0.70;0.70;;;;;;;17.75;100.00;-21163.41;5046807;28;20483;-71
2021/08/16 05:17:54;;;;;;;0.70;0.70;;;;;;;17.76;100.00;-21163.53;5035174;28;20454;-73
2021/08/16 05:20:22;;;;;;;11.00;1.73;;;;;;;17.81;100.00;-21165.03;5034201;28;20429;-73
2021/08/16 05:22:50;;;;;;;0.80;0.70;;;;;;;17.75;100.00;-21163.41;5037852;28;20794;-72
2021/08/16 05:25:18;;;;;;;0.80;0.80;;;;;;;17.74;100.00;-21162.97;5055317;28;20424;-71
2021/08/16 05:27:47;;;;;;;0.70;0.63;;;;;;;17.81;100.00;-21165.03;5053085;28;20430;-71
2021/08/16 05:30:16;;;;;;;0.80;0.70;;;;;;;17.86;100.00;-21166.41;5055225;28;20415;-72
2021/08/16 05:32:42;;;;;;;0.80;0.70;;;;;;;17.98;100.00;-21169.56;5053787;28;20473;-70
2021/08/16 05:35:10;;;;;;;0.80;0.80;;;;;;;17.79;100.00;-21164.34;5053820;28;20999;-70
2021/08/16 05:37:37;;;;;;;0.80;0.80;;;;;;;17.73;100.00;-21162.84;5054528;28;20469;-71
2021/08/16 05:40:06;;;;;;;0.70;0.70;;;;;;;17.83;100.00;-21165.59;5053804;28;20458;-73
2021/08/16 05:42:33;;;;;;;0.80;0.70;;;;;;;17.84;100.00;-21165.72;5052711;28;21029;-71
2021/08/16 05:45:03;;;;;;;0.90;0.80;;;;;;;17.76;100.00;-21163.66;5055104;28;20485;-71
2021/08/16 05:47:30;;;;;;;0.80;0.70;;;;;;;17.80;100.00;-21164.78;5054861;28;20430;-73
2021/08/16 05:50:00;;;;;;;0.73;0.70;;;;;;;17.73;100.00;-21162.72;5054878;28;20438;-72
2021/08/16 05:52:27;;;;;;;0.77;0.70;;;;;;;17.72;100.00;-21162.56;5053443;28;20473;-71
2021/08/16 05:54:54;;;;;;;0.70;0.60;;;;;;;17.91;100.00;-21167.50;5052815;28;20465;-70
2021/08/16 05:57:22;;;;;;;0.80;0.70;;;;;;;18.01;100.00;-21170.25;5051424;28;20471;-72
2021/08/16 05:59:49;;;;;;;0.70;0.70;;;;;;;18.21;100.00;-21175.72;5053519;28;20782;-72
2021/08/16 06:02:17;;;;;;;0.80;0.70;;;;;;;18.16;100.00;-21174.34;5036637;28;20434;-73
2021/08/16 06:04:46;;;;;;;1.47;0.80;;;;;;;18.24;100.00;-21176.56;5053306;28;20500;-72
2021/08/16 06:07:13;;;;;;;0.70;0.70;;;;;;;18.21;100.00;-21175.72;5054531;28;20494;-71
2021/08/16 06:09:40;;;;;;;0.80;0.73;;;;;;;18.48;100.00;-21182.97;5053033;28;20461;-73
2021/08/16 06:12:07;;;;;;;1.23;1.13;;;;;;;18.64;100.00;-21187.09;5052625;28;20432;-73
2021/08/16 06:14:34;;;;;;;0.80;0.70;;;;;;;18.65;100.00;-21187.38;5052879;28;20444;-74
2021/08/16 06:17:03;;;;;;;0.80;0.70;;;;;;;18.57;100.00;-21185.44;5053933;28;20522;-71
2021/08/16 06:19:33;;;;;;;0.80;0.70;;;;;;;18.74;100.00;-21189.97;5048284;28;20450;-72
2021/08/16 06:22:00;;;;;;;0.70;0.60;;;;;;;18.88;100.00;-21193.53;5053337;28;20437;-73
2021/08/16 06:24:27;;;;;;;0.80;0.70;;;;;;;18.76;100.00;-21190.38;5052871;28;20457;-73
2021/08/16 06:26:54;;;;;;;0.80;0.70;;;;;;;19.01;100.00;-21197.22;5052910;28;20526;-72
2021/08/16 06:29:22;;;;;;;0.70;0.60;;;;;;;19.02;100.00;-21197.34;5052305;28;20508;-72
2021/08/16 06:31:49;;;;;;;0.80;0.70;;;;;;;18.99;100.00;-21196.53;5053879;28;20529;-71
2021/08/16 06:34:16;;;;;;;0.80;0.60;;;;;;;18.81;100.00;-21191.88;5051804;28;21015;-72
2021/08/16 06:36:51;;;;;;;0.80;0.70;;;;;;;18.91;100.00;-21194.34;5053386;28;20468;-71
2021/08/16 06:39:18;;;;;;;0.83;0.70;;;;;;;19.09;100.00;-21199.28;5050012;28;20479;-71
2021/08/16 06:41:46;;;;;;;0.80;0.80;;;;;;;19.15;100.00;-21200.91;5052480;28;20456;-71
2021/08/16 06:44:17;;;;;;;0.80;0.80;;;;;;;18.92;100.00;-21194.63;5053362;28;20519;-74
2021/08/16 06:46:44;;;;;;;0.80;0.80;;;;;;;19.21;100.00;-21202.56;5034442;28;20527;-72
2021/08/16 06:49:12;;;;;;;0.80;0.70;;;;;;;19.29;100.00;-21204.75;5032483;28;20434;-74
2021/08/16 06:51:40;;;;;;;0.80;0.70;;;;;;;19.31;100.00;-21205.16;5016474;28;20496;-71
2021/08/16 06:54:09;;;;;;;0.77;0.70;;;;;;;19.11;100.00;-21199.81;5034136;28;20464;-72
2021/08/16 06:56:54;;;;;;;0.80;0.60;;;;;;;19.10;100.00;-21199.56;5032168;28;21007;-73
2021/08/16 06:59:22;;;;;;;0.80;0.70;;;;;;;19.11;100.00;-21199.81;5033799;28;20463;-71
2021/08/16 07:01:49;;;;;;;0.80;0.70;;;;;;;18.97;100.00;-21196.13;5052018;28;20447;-72
2021/08/16 07:04:18;;;;;;;0.70;0.70;;;;;;;18.82;100.00;-21192.03;5053808;28;20425;-72
2021/08/16 07:06:46;;;;;;;0.70;0.70;;;;;;;18.91;100.00;-21194.50;5050827;28;20799;-71
2021/08/16 07:09:15;;;;;;;0.70;0.60;;;;;;;18.87;100.00;-21193.41;5045600;28;20907;-70
2021/08/16 07:11:42;;;;;;;0.80;0.73;;;;;;;19.25;100.00;-21203.50;5043672;28;20937;-74
2021/08/16 07:14:10;;;;;;;0.77;0.77;;;;;;;19.07;100.00;-21198.72;5031919;28;20425;-72
2021/08/16 07:16:37;;;;;;;0.73;0.70;;;;;;;19.31;100.00;-21205.28;5033701;28;20995;-73
2021/08/16 07:19:04;;;;;;;0.80;0.73;;;;;;;19.23;100.00;-21202.97;5047480;28;20440;-71
2021/08/16 07:21:31;;;;;;;0.70;0.70;;;;;;;19.33;100.00;-21205.56;5053150;28;20835;-73
2021/08/16 07:23:58;;;;;;;0.70;0.70;;;;;;;19.12;100.00;-21200.09;5052283;28;20454;-74
2021/08/16 07:26:26;;;;;;;0.80;0.70;;;;;;;19.27;100.00;-21204.19;5051909;28;20519;-72
2021/08/16 07:28:53;;;;;;;0.80;0.70;;;;;;;19.46;100.00;-21209.13;5035102;28;20510;-72
2021/08/16 07:31:20;;;;;;;0.80;0.70;;;;;;;19.53;100.00;-21211.03;5053092;28;20428;-74
2021/08/16 07:33:47;;;;;;;0.80;0.63;;;;;;;19.71;100.00;-21215.97;5052091;28;20429;-72
2021/08/16 07:36:16;;;;;;;0.80;0.60;;;;;;;19.30;100.00;-21204.88;5051424;28;20434;-76
2021/08/16 07:38:43;;;;;;;0.80;0.70;;;;;;;19.00;100.00;-21196.81;5031544;28;20487;-72
2021/08/16 07:41:11;;;;;;;0.80;0.70;;;;;;;19.22;100.00;-21202.69;5032935;28;20436;-74
2021/08/16 07:43:40;;;;;;;0.70;0.60;;;;;;;19.81;100.00;-21218.41;5032627;28;20432;-72
2021/08/16 07:46:07;;;;;;;0.80;0.80;;;;;;;20.14;100.00;-21227.44;5033037;28;20424;-75
2021/08/16 07:48:34;;;;;;;0.70;0.70;;;;;;;20.32;100.00;-21232.22;5040985;28;20961;-72
2021/08/16 07:51:01;;;;;;;0.80;0.70;;;;;;;20.57;100.00;-21238.78;5051920;28;20433;-73
2021/08/16 07:53:32;;;;;;;0.80;0.70;;;;;;;20.60;100.00;-21239.72;5051464;28;20984;-72
2021/08/16 07:56:00;;;;;;;0.77;0.60;;;;;;;21.22;100.00;-21256.38;5053063;28;20452;-72
2021/08/16 07:58:27;;;;;;;0.80;0.70;;;;;;;21.10;100.00;-21252.97;5050590;28;20486;-74
2021/08/16 08:00:55;;;;;;;1.10;1.00;;;;;;;21.20;100.00;-21255.69;5052308;28;20936;-73
2021/08/16 08:03:23;;;;;;;0.80;0.80;;;;;;;21.17;100.00;-21255.03;5051124;28;20798;-73
2021/08/16 08:05:50;;;;;;;0.80;0.67;;;;;;;21.08;100.00;-21252.56;5051296;28;20479;-72
2021/08/16 08:08:17;;;;;;;0.80;0.70;;;;;;;20.65;100.00;-21241.09;5052833;28;20849;-72
2021/08/16 08:10:44;;;;;;;0.80;0.70;;;;;;;20.37;100.00;-21233.59;5051375;28;20534;-76
2021/08/16 08:13:14;;;;;;;0.90;0.80;;;;;;;20.10;100.00;-21226.34;5049922;28;20912;-70
2021/08/16 08:15:41;;;;;;;0.70;0.60;;;;;;;20.34;100.00;-21232.63;5042353;28;20439;-72
2021/08/16 08:18:11;;;;;;;0.80;0.60;;;;;;;20.66;100.00;-21241.38;5052650;28;21013;-73
2021/08/16 08:20:38;;;;;;;1.47;1.17;;;;;;;20.91;100.00;-21247.91;5055061;28;20540;-74
2021/08/16 08:23:05;;;;;;;0.80;0.70;;;;;;;20.86;100.00;-21246.56;5056946;28;20490;-77
2021/08/16 08:25:39;;;;;;;0.73;0.63;;;;;;;20.81;100.00;-21245.34;5056113;28;20416;-72
2021/08/16 08:28:15;;;;;;;0.80;0.70;;;;;;;20.83;100.00;-21245.88;5054854;28;20455;-76
2021/08/16 08:30:44;;;;;;;0.80;0.70;;;;;;;21.15;100.00;-21254.47;5054353;28;20440;-73
2021/08/16 08:33:15;;;;;;;0.80;0.70;;;;;;;21.35;100.00;-21259.66;5054464;28;20846;-72
2021/08/16 08:35:44;;;;;;;0.80;0.70;;;;;;;22.03;100.00;-21277.91;5056032;28;20419;-73
2021/08/16 08:38:11;;;;;;;0.80;0.67;;;;;;;22.10;100.00;-21279.81;5055816;28;20533;-73
2021/08/16 08:40:38;;;;;;;0.80;0.70;;;;;;;22.33;100.00;-21285.81;5055682;28;20432;-74
2021/08/16 08:43:08;;;;;;;0.80;0.60;;;;;;;22.41;100.00;-21288.00;5054522;28;20423;-73
2021/08/16 08:45:37;;;;;;;0.80;0.70;;;;;;;22.26;100.00;-21283.91;5054846;28;20394;-75
2021/08/16 08:48:04;;;;;;;0.80;0.73;;;;;;;21.64;100.00;-21267.56;5019049;28;20452;-75
2021/08/16 08:50:33;;;;;;;0.80;0.80;;;;;;;21.98;100.00;-21276.41;5035865;28;20861;-74
2021/08/16 08:53:02;;;;;;;0.80;0.60;;;;;;;22.44;100.00;-21288.81;5035518;28;20452;-74
2021/08/16 08:55:30;;;;;;;0.80;0.70;;;;;;;22.64;100.00;-21294.13;5054391;28;20926;-74
2021/08/16 08:58:13;;;;;;;0.90;0.80;;;;;;;22.94;100.00;-21302.03;5055722;28;20426;-74
2021/08/16 09:00:41;;;;;;;1.87;0.80;;;;;;;22.54;100.00;-21291.53;5054536;28;20910;-70
2021/08/16 09:03:09;;;;;;;0.80;0.60;;;;;;;22.56;100.00;-21292.09;5047804;28;20443;-73
2021/08/16 09:05:50;;;;;;;0.80;0.70;;;;;;;22.29;100.00;-21284.75;5042555;28;20434;-74
2021/08/16 09:08:22;;;;;;;0.73;0.60;;;;;;;22.31;100.00;-21285.41;5054204;28;20448;-75
2021/08/16 09:10:51;;;;;;;0.80;0.70;;;;;;;22.14;100.00;-21280.78;5054594;28;20472;-74
2021/08/16 09:13:25;;;;;;;0.80;0.70;;;;;;;22.68;100.00;-21295.22;5055159;28;20522;-75
2021/08/16 09:15:54;;;;;;;0.80;0.70;;;;;;;23.22;100.00;-21309.66;5055168;28;20412;-74
2021/08/16 09:18:32;;;;;;;0.80;0.70;;;;;;;23.25;100.00;-21310.31;5054346;28;20460;-72
2021/08/16 09:21:00;;;;;;;0.70;0.70;;;;;;;22.76;100.00;-21297.25;5054571;28;20897;-74
2021/08/16 09:23:38;;;;;;;0.80;0.70;;;;;;;22.42;100.00;-21288.28;5054231;28;20427;-74
2021/08/16 09:26:07;;;;;;;0.93;0.83;;;;;;;22.67;100.00;-21295.09;5052749;28;20425;-74
2021/08/16 09:28:34;;;;;;;0.80;0.70;;;;;;;22.99;100.00;-21303.38;5054668;28;20504;-73
2021/08/16 09:31:09;;;;;;;0.80;0.80;;;;;;;22.44;100.00;-21288.81;5055048;28;20440;-72
2021/08/16 09:33:52;;;;;;;0.80;0.70;;;;;;;22.48;100.00;-21289.91;5053721;28;20868;-74
2021/08/16 09:36:20;;;;;;;0.80;0.70;;;;;;;22.21;100.00;-21282.56;5047274;28;20833;-75
2021/08/16 09:38:48;;;;;;;0.80;0.60;;;;;;;22.34;100.00;-21286.09;5035006;28;20563;-73
2021/08/16 09:41:21;;;;;;;0.80;0.70;;;;;;;21.66;100.00;-21268.13;5044917;28;20921;-75
2021/08/16 09:43:48;;;;;;;1.17;1.07;;;;;;;21.69;100.00;-21268.94;5034661;28;20388;-73
2021/08/16 09:46:17;;;;;;;0.93;0.90;;;;;;;21.51;100.00;-21264.03;5017339;28;20480;-72
2021/08/16 09:48:55;;;;;;;0.80;0.73;;;;;;;21.43;100.00;-21261.84;5034454;28;20413;-72
2021/08/16 09:51:25;;;;;;;0.80;0.77;;;;;;;21.56;100.00;-21265.38;5034292;28;20420;-73
2021/08/16 09:53:54;;;;;;;0.80;0.60;;;;;;;21.58;100.00;-21265.94;5048142;28;20466;-74
2021/08/16 09:56:22;;;;;;;0.80;0.70;;;;;;;21.85;100.00;-21273.16;5049180;28;20470;-72
2021/08/16 09:58:49;;;;;;;0.80;0.70;;;;;;;21.61;100.00;-21266.75;5052749;28;20509;-75
2021/08/16 10:01:16;;;;;;;0.80;0.70;;;;;;;21.88;100.00;-21273.97;5036884;28;20428;-70
2021/08/16 10:03:45;;;;;;;0.80;0.60;;;;;;;21.99;100.00;-21276.84;5052912;28;20928;-72
2021/08/16 10:06:16;;;;;;;0.70;0.60;;;;;;;21.54;100.00;-21264.84;5053161;28;20423;-73
2021/08/16 10:08:48;;;;;;;2.60;1.20;;;;;;;22.29;100.00;-21284.75;5053166;28;20523;-71
2021/08/16 10:11:18;;;;;;;1.03;0.93;;;;;;;23.45;100.00;-21315.75;5046630;28;20414;-73
2021/08/16 10:13:48;;;;;;;0.80;0.70;;;;;;;23.76;100.00;-21323.91;5052636;28;20402;-75
2021/08/16 10:16:20;;;;;;;0.93;0.83;;;;;;;23.12;100.00;-21307.06;5052945;28;20423;-71
2021/08/16 10:18:58;;;;;;;0.80;0.80;;;;;;;22.89;100.00;-21300.78;5054321;28;20488;-72
2021/08/16 10:21:26;;;;;;;0.80;0.70;;;;;;;23.13;100.00;-21307.19;5054136;28;20925;-73
2021/08/16 10:23:55;;;;;;;0.80;0.60;;;;;;;24.04;100.00;-21331.38;5054279;28;20761;-74
2021/08/16 10:26:27;;;;;;;1.57;1.47;;;;;;;23.72;100.00;-21322.84;5036124;28;20415;-70
2021/08/16 10:28:58;;;;;;;0.80;0.60;;;;;;;22.92;100.00;-21301.63;5052079;28;20409;-73
2021/08/16 10:31:29;;;;;;;0.80;0.70;;;;;;;22.66;100.00;-21294.81;5053993;28;20475;-70
2021/08/16 10:33:56;;;;;;;0.70;0.60;;;;;;;22.80;100.00;-21298.34;5050501;28;20403;-70
2021/08/16 10:36:24;;;;;;;0.80;0.60;;;;;;;23.14;100.00;-21307.59;5040955;28;20425;-71
2021/08/16 10:38:54;;;;;;;0.80;0.70;;;;;;;23.34;100.00;-21312.78;5053730;28;20841;-72
2021/08/16 10:41:30;;;;;;;0.70;0.60;;;;;;;22.95;100.00;-21302.44;5053813;28;20436;-73
2021/08/16 10:44:10;;;;;;;0.80;0.70;;;;;;;22.67;100.00;-21294.94;5051518;28;20493;-71
2021/08/16 10:46:38;;;;;;;0.80;0.60;;;;;;;22.03;100.00;-21277.91;5053685;28;20390;-71
2021/08/16 10:49:07;;;;;;;0.80;0.70;;;;;;;22.06;100.00;-21278.75;5053882;28;20505;-72
2021/08/16 10:51:42;;;;;;;0.80;0.60;;;;;;;22.23;100.00;-21283.25;5053510;28;20379;-70
2021/08/16 10:54:21;;;;;;;0.80;0.70;;;;;;;22.35;100.00;-21286.38;5039216;28;20496;-71
2021/08/16 10:56:50;;;;;;;0.80;0.60;;;;;;;22.23;100.00;-21283.09;5015816;28;20422;-70
2021/08/16 10:59:18;;;;;;;0.80;0.67;;;;;;;22.20;100.00;-21282.41;5043961;28;20533;-71
2021/08/16 11:01:46;;;;;;;0.90;0.80;;;;;;;21.98;100.00;-21276.56;5038725;28;20445;-71
2021/08/16 11:04:27;;;;;;;0.80;0.60;;;;;;;21.76;100.00;-21270.69;5038838;28;20413;-71
2021/08/16 11:06:55;;;;;;;0.90;0.80;;;;;;;21.09;100.00;-21252.69;5041598;28;20955;-71
2021/08/16 11:09:26;;;;;;;0.80;0.70;;;;;;;20.05;100.00;-21224.97;5052793;28;20444;-73
2021/08/16 11:12:05;;;;;;;0.80;0.70;;;;;;;19.64;100.00;-21214.06;5053885;28;20490;-71
2021/08/16 11:14:35;;;;;;;0.80;0.70;;;;;;;19.55;100.00;-21211.59;5053417;28;20415;-70
2021/08/16 11:17:04;;;;;;;0.80;0.70;;;;;;;19.31;100.00;-21205.16;5053214;28;20424;-70
2021/08/16 11:19:41;;;;;;;0.80;0.70;;;;;;;18.74;100.00;-21189.97;5053245;28;20851;-70
2021/08/16 11:22:08;;;;;;;0.80;0.73;;;;;;;18.64;100.00;-21187.22;5051888;28;20473;-69
2021/08/16 11:24:41;;;;;;;0.80;0.70;;;;;;;18.40;100.00;-21180.66;5043045;28;20505;-70